sensor_id;sensor_type;location;lat;lon;timestamp;P1;durP1;ratioP1;P2;durP2;ratioP2
58208;SDS011;44006;52.028;4.696;2022-07-12T00:01:37;5.70;;;2.60;;
58208;SDS011;44006;52.028;4.696;2022-07-12T00:04:02;5.30;;;2.78;;
58208;SDS011;44006;52.028;4.696;2022-07-12T00:06:28;5.97;;;2.63;;
58208;SDS011;44006;52.028;4.696;2022-07-12T00:08:53;5.38;;;2.58;;
58208;SDS011;44006;52.028;4.696;2022-07-12T00:11:20;3.33;;;2.40;;
58208;SDS011;44006;52.028;4.696;2022-07-12T00:13:45;5.25;;;2.55;;
58208;SDS011;44006;52.028;4.696;2022-07-12T00:16:10;4.75;;;2.65;;
58208;SDS011;44006;52.028;4.696;2022-07-12T00:18:36;4.63;;;2.67;;
58208;SDS011;44006;52.028;4.696;2022-07-12T00:21:01;4.90;;;2.67;;
58208;SDS011;44006;52.028;4.696;2022-07-12T00:23:26;5.10;;;2.70;;
58208;SDS011;44006;52.028;4.696;2022-07-12T00:25:52;3.92;;;2.47;;
58208;SDS011;44006;52.028;4.696;2022-07-12T00:28:17;3.83;;;3.15;;
58208;SDS011;44006;52.028;4.696;2022-07-12T00:30:42;3.97;;;3.05;;
58208;SDS011;44006;52.028;4.696;2022-07-12T00:33:08;4.43;;;3.03;;
58208;SDS011;44006;52.028;4.696;2022-07-12T00:35:34;4.32;;;2.70;;
58208;SDS011;44006;52.028;4.696;2022-07-12T00:37:59;4.55;;;3.10;;
58208;SDS011;44006;52.028;4.696;2022-07-12T00:40:24;4.10;;;2.70;;
58208;SDS011;44006;52.028;4.696;2022-07-12T00:42:49;5.15;;;2.78;;
58208;SDS011;44006;52.028;4.696;2022-07-12T00:45:15;5.13;;;3.28;;
58208;SDS011;44006;52.028;4.696;2022-07-12T00:47:42;5.85;;;3.50;;
58208;SDS011;44006;52.028;4.696;2022-07-12T00:52:40;4.65;;;3.30;;
58208;SDS011;44006;52.028;4.696;2022-07-12T00:55:06;4.30;;;3.17;;
58208;SDS011;44006;52.028;4.696;2022-07-12T00:57:33;4.93;;;3.38;;
58208;SDS011;44006;52.028;4.696;2022-07-12T01:00:00;6.03;;;3.30;;
58208;SDS011;44006;52.028;4.696;2022-07-12T01:02:26;4.85;;;3.10;;
58208;SDS011;44006;52.028;4.696;2022-07-12T01:04:53;8.15;;;3.30;;
58208;SDS011;44006;52.028;4.696;2022-07-12T01:07:20;4.28;;;3.40;;
58208;SDS011;44006;52.028;4.696;2022-07-12T01:09:45;4.97;;;3.80;;
58208;SDS011;44006;52.028;4.696;2022-07-12T01:12:11;5.10;;;3.72;;
58208;SDS011;44006;52.028;4.696;2022-07-12T01:14:38;5.20;;;3.70;;
58208;SDS011;44006;52.028;4.696;2022-07-12T01:17:05;4.60;;;3.72;;
58208;SDS011;44006;52.028;4.696;2022-07-12T01:19:31;4.93;;;4.20;;
58208;SDS011;44006;52.028;4.696;2022-07-12T01:21:57;4.53;;;3.50;;
58208;SDS011;44006;52.028;4.696;2022-07-12T01:24:26;5.93;;;4.22;;
58208;SDS011;44006;52.028;4.696;2022-07-12T01:26:51;5.70;;;4.40;;
58208;SDS011;44006;52.028;4.696;2022-07-12T01:29:17;5.28;;;4.03;;
58208;SDS011;44006;52.028;4.696;2022-07-12T01:31:43;5.75;;;4.10;;
58208;SDS011;44006;52.028;4.696;2022-07-12T01:34:08;6.80;;;4.63;;
58208;SDS011;44006;52.028;4.696;2022-07-12T01:36:34;5.80;;;4.43;;
58208;SDS011;44006;52.028;4.696;2022-07-12T01:39:01;6.32;;;5.03;;
58208;SDS011;44006;52.028;4.696;2022-07-12T01:41:28;6.28;;;4.85;;
58208;SDS011;44006;52.028;4.696;2022-07-12T01:43:54;6.03;;;4.60;;
58208;SDS011;44006;52.028;4.696;2022-07-12T01:46:19;5.38;;;4.60;;
58208;SDS011;44006;52.028;4.696;2022-07-12T01:48:45;5.85;;;4.40;;
58208;SDS011;44006;52.028;4.696;2022-07-12T01:51:10;6.35;;;4.32;;
58208;SDS011;44006;52.028;4.696;2022-07-12T01:53:36;4.90;;;4.35;;
58208;SDS011;44006;52.028;4.696;2022-07-12T01:56:04;5.60;;;4.35;;
58208;SDS011;44006;52.028;4.696;2022-07-12T01:58:30;5.13;;;4.32;;
58208;SDS011;44006;52.028;4.696;2022-07-12T02:00:56;5.20;;;4.30;;
58208;SDS011;44006;52.028;4.696;2022-07-12T02:03:22;6.32;;;3.78;;
58208;SDS011;44006;52.028;4.696;2022-07-12T02:05:48;5.53;;;4.32;;
58208;SDS011;44006;52.028;4.696;2022-07-12T02:08:13;5.25;;;4.50;;
58208;SDS011;44006;52.028;4.696;2022-07-12T02:10:44;6.78;;;5.03;;
58208;SDS011;44006;52.028;4.696;2022-07-12T02:13:10;5.65;;;4.30;;
58208;SDS011;44006;52.028;4.696;2022-07-12T02:15:35;6.10;;;4.65;;
58208;SDS011;44006;52.028;4.696;2022-07-12T02:18:00;5.90;;;4.50;;
58208;SDS011;44006;52.028;4.696;2022-07-12T02:20:26;7.70;;;4.43;;
58208;SDS011;44006;52.028;4.696;2022-07-12T02:22:52;5.85;;;4.50;;
58208;SDS011;44006;52.028;4.696;2022-07-12T02:25:17;7.97;;;4.90;;
58208;SDS011;44006;52.028;4.696;2022-07-12T02:27:43;8.70;;;5.35;;
58208;SDS011;44006;52.028;4.696;2022-07-12T02:30:09;5.13;;;4.57;;
58208;SDS011;44006;52.028;4.696;2022-07-12T02:32:36;6.80;;;4.60;;
58208;SDS011;44006;52.028;4.696;2022-07-12T02:35:02;7.50;;;4.90;;
58208;SDS011;44006;52.028;4.696;2022-07-12T02:37:28;6.38;;;5.30;;
58208;SDS011;44006;52.028;4.696;2022-07-12T02:39:54;6.60;;;5.07;;
58208;SDS011;44006;52.028;4.696;2022-07-12T02:42:39;5.15;;;4.32;;
58208;SDS011;44006;52.028;4.696;2022-07-12T02:45:05;6.32;;;5.00;;
58208;SDS011;44006;52.028;4.696;2022-07-12T02:47:30;7.45;;;5.55;;
58208;SDS011;44006;52.028;4.696;2022-07-12T02:49:58;7.18;;;5.18;;
58208;SDS011;44006;52.028;4.696;2022-07-12T02:52:23;5.47;;;4.80;;
58208;SDS011;44006;52.028;4.696;2022-07-12T02:54:49;5.35;;;4.60;;
58208;SDS011;44006;52.028;4.696;2022-07-12T02:57:14;6.35;;;5.32;;
58208;SDS011;44006;52.028;4.696;2022-07-12T02:59:40;6.80;;;5.20;;
58208;SDS011;44006;52.028;4.696;2022-07-12T03:02:05;6.65;;;4.50;;
58208;SDS011;44006;52.028;4.696;2022-07-12T03:04:31;6.40;;;4.35;;
58208;SDS011;44006;52.028;4.696;2022-07-12T03:06:56;6.32;;;4.50;;
58208;SDS011;44006;52.028;4.696;2022-07-12T03:09:21;5.57;;;4.50;;
58208;SDS011;44006;52.028;4.696;2022-07-12T03:11:46;7.25;;;4.82;;
58208;SDS011;44006;52.028;4.696;2022-07-12T03:14:12;6.22;;;5.20;;
58208;SDS011;44006;52.028;4.696;2022-07-12T03:16:37;6.32;;;4.60;;
58208;SDS011;44006;52.028;4.696;2022-07-12T03:19:02;8.02;;;4.90;;
58208;SDS011;44006;52.028;4.696;2022-07-12T03:21:28;6.00;;;4.70;;
58208;SDS011;44006;52.028;4.696;2022-07-12T03:23:53;5.97;;;5.07;;
58208;SDS011;44006;52.028;4.696;2022-07-12T03:26:19;5.88;;;4.80;;
58208;SDS011;44006;52.028;4.696;2022-07-12T03:28:45;7.40;;;5.43;;
58208;SDS011;44006;52.028;4.696;2022-07-12T03:31:11;7.03;;;4.32;;
58208;SDS011;44006;52.028;4.696;2022-07-12T03:33:36;6.95;;;5.43;;
58208;SDS011;44006;52.028;4.696;2022-07-12T03:36:01;6.72;;;5.20;;
58208;SDS011;44006;52.028;4.696;2022-07-12T03:38:27;5.85;;;4.93;;
58208;SDS011;44006;52.028;4.696;2022-07-12T03:40:52;9.05;;;5.47;;
58208;SDS011;44006;52.028;4.696;2022-07-12T03:43:18;6.78;;;5.53;;
58208;SDS011;44006;52.028;4.696;2022-07-12T03:45:44;10.65;;;5.03;;
58208;SDS011;44006;52.028;4.696;2022-07-12T03:48:10;6.68;;;5.65;;
58208;SDS011;44006;52.028;4.696;2022-07-12T03:50:35;8.30;;;5.40;;
58208;SDS011;44006;52.028;4.696;2022-07-12T03:53:02;6.75;;;5.50;;
58208;SDS011;44006;52.028;4.696;2022-07-12T03:55:27;8.38;;;5.25;;
58208;SDS011;44006;52.028;4.696;2022-07-12T03:57:53;8.02;;;5.38;;
58208;SDS011;44006;52.028;4.696;2022-07-12T04:00:18;6.22;;;5.07;;
58208;SDS011;44006;52.028;4.696;2022-07-12T04:02:44;7.25;;;5.97;;
58208;SDS011;44006;52.028;4.696;2022-07-12T04:05:10;6.22;;;5.50;;
58208;SDS011;44006;52.028;4.696;2022-07-12T04:07:36;5.97;;;5.38;;
58208;SDS011;44006;52.028;4.696;2022-07-12T04:10:02;5.97;;;5.25;;
58208;SDS011;44006;52.028;4.696;2022-07-12T04:12:29;6.18;;;5.32;;
58208;SDS011;44006;52.028;4.696;2022-07-12T04:14:54;6.80;;;5.38;;
58208;SDS011;44006;52.028;4.696;2022-07-12T04:17:19;5.50;;;4.90;;
58208;SDS011;44006;52.028;4.696;2022-07-12T04:19:45;7.00;;;5.05;;
58208;SDS011;44006;52.028;4.696;2022-07-12T04:22:10;7.30;;;5.88;;
58208;SDS011;44006;52.028;4.696;2022-07-12T04:24:35;6.18;;;5.15;;
58208;SDS011;44006;52.028;4.696;2022-07-12T04:27:01;7.40;;;5.03;;
58208;SDS011;44006;52.028;4.696;2022-07-12T04:29:26;8.40;;;5.63;;
58208;SDS011;44006;52.028;4.696;2022-07-12T04:31:51;6.45;;;5.20;;
58208;SDS011;44006;52.028;4.696;2022-07-12T04:34:17;7.43;;;5.88;;
58208;SDS011;44006;52.028;4.696;2022-07-12T04:36:43;7.47;;;6.20;;
58208;SDS011;44006;52.028;4.696;2022-07-12T04:39:09;8.48;;;6.43;;
58208;SDS011;44006;52.028;4.696;2022-07-12T04:41:35;6.95;;;5.72;;
58208;SDS011;44006;52.028;4.696;2022-07-12T04:44:02;6.13;;;5.25;;
58208;SDS011;44006;52.028;4.696;2022-07-12T04:46:29;7.90;;;5.50;;
58208;SDS011;44006;52.028;4.696;2022-07-12T04:48:54;7.30;;;6.05;;
58208;SDS011;44006;52.028;4.696;2022-07-12T04:51:20;6.60;;;5.30;;
58208;SDS011;44006;52.028;4.696;2022-07-12T04:53:45;8.18;;;6.38;;
58208;SDS011;44006;52.028;4.696;2022-07-12T04:56:10;6.90;;;6.20;;
58208;SDS011;44006;52.028;4.696;2022-07-12T04:58:36;9.75;;;7.68;;
58208;SDS011;44006;52.028;4.696;2022-07-12T05:01:01;7.97;;;7.18;;
58208;SDS011;44006;52.028;4.696;2022-07-12T05:03:27;7.90;;;6.65;;
58208;SDS011;44006;52.028;4.696;2022-07-12T05:05:53;8.20;;;6.60;;
58208;SDS011;44006;52.028;4.696;2022-07-12T05:08:19;8.45;;;7.25;;
58208;SDS011;44006;52.028;4.696;2022-07-12T05:10:45;8.18;;;7.22;;
58208;SDS011;44006;52.028;4.696;2022-07-12T05:13:10;8.70;;;7.53;;
58208;SDS011;44006;52.028;4.696;2022-07-12T05:15:35;9.20;;;7.32;;
58208;SDS011;44006;52.028;4.696;2022-07-12T05:18:01;9.10;;;7.55;;
58208;SDS011;44006;52.028;4.696;2022-07-12T05:20:26;10.10;;;7.45;;
58208;SDS011;44006;52.028;4.696;2022-07-12T05:22:51;9.77;;;8.25;;
58208;SDS011;44006;52.028;4.696;2022-07-12T05:25:17;9.18;;;7.53;;
58208;SDS011;44006;52.028;4.696;2022-07-12T05:27:42;9.73;;;7.40;;
58208;SDS011;44006;52.028;4.696;2022-07-12T05:30:08;8.40;;;7.22;;
58208;SDS011;44006;52.028;4.696;2022-07-12T05:32:34;8.07;;;7.28;;
58208;SDS011;44006;52.028;4.696;2022-07-12T05:34:59;9.25;;;8.00;;
58208;SDS011;44006;52.028;4.696;2022-07-12T05:37:25;10.57;;;8.52;;
58208;SDS011;44006;52.028;4.696;2022-07-12T05:39:51;10.15;;;8.88;;
58208;SDS011;44006;52.028;4.696;2022-07-12T05:42:17;8.85;;;7.93;;
58208;SDS011;44006;52.028;4.696;2022-07-12T05:44:42;11.32;;;9.30;;
58208;SDS011;44006;52.028;4.696;2022-07-12T05:47:08;12.82;;;9.30;;
58208;SDS011;44006;52.028;4.696;2022-07-12T05:49:33;11.90;;;8.90;;
58208;SDS011;44006;52.028;4.696;2022-07-12T05:51:59;12.32;;;8.48;;
58208;SDS011;44006;52.028;4.696;2022-07-12T05:54:42;8.63;;;7.72;;
58208;SDS011;44006;52.028;4.696;2022-07-12T05:57:08;11.90;;;8.73;;
58208;SDS011;44006;52.028;4.696;2022-07-12T05:59:36;12.63;;;9.57;;
58208;SDS011;44006;52.028;4.696;2022-07-12T06:02:04;11.38;;;8.48;;
58208;SDS011;44006;52.028;4.696;2022-07-12T06:04:29;11.85;;;7.75;;
58208;SDS011;44006;52.028;4.696;2022-07-12T06:06:55;9.13;;;7.85;;
58208;SDS011;44006;52.028;4.696;2022-07-12T06:09:21;9.73;;;8.73;;
58208;SDS011;44006;52.028;4.696;2022-07-12T06:11:46;10.85;;;8.90;;
58208;SDS011;44006;52.028;4.696;2022-07-12T06:14:12;9.98;;;7.88;;
58208;SDS011;44006;52.028;4.696;2022-07-12T06:16:37;10.27;;;8.75;;
58208;SDS011;44006;52.028;4.696;2022-07-12T06:19:03;10.70;;;8.40;;
58208;SDS011;44006;52.028;4.696;2022-07-12T06:21:28;11.43;;;9.82;;
58208;SDS011;44006;52.028;4.696;2022-07-12T06:23:53;13.45;;;9.30;;
58208;SDS011;44006;52.028;4.696;2022-07-12T06:26:19;9.82;;;8.32;;
58208;SDS011;44006;52.028;4.696;2022-07-12T06:28:44;10.38;;;8.80;;
58208;SDS011;44006;52.028;4.696;2022-07-12T06:31:09;10.43;;;8.57;;
58208;SDS011;44006;52.028;4.696;2022-07-12T06:33:35;12.18;;;10.25;;
58208;SDS011;44006;52.028;4.696;2022-07-12T06:36:00;11.55;;;10.23;;
58208;SDS011;44006;52.028;4.696;2022-07-12T06:38:25;11.45;;;9.60;;
58208;SDS011;44006;52.028;4.696;2022-07-12T06:40:51;13.75;;;10.13;;
58208;SDS011;44006;52.028;4.696;2022-07-12T06:43:16;13.63;;;9.80;;
58208;SDS011;44006;52.028;4.696;2022-07-12T06:45:41;14.05;;;10.27;;
58208;SDS011;44006;52.028;4.696;2022-07-12T06:48:07;12.82;;;11.05;;
58208;SDS011;44006;52.028;4.696;2022-07-12T06:50:32;12.85;;;11.25;;
58208;SDS011;44006;52.028;4.696;2022-07-12T06:52:58;12.52;;;9.90;;
58208;SDS011;44006;52.028;4.696;2022-07-12T06:55:23;15.35;;;13.85;;
58208;SDS011;44006;52.028;4.696;2022-07-12T06:57:49;13.68;;;11.02;;
58208;SDS011;44006;52.028;4.696;2022-07-12T07:00:14;15.25;;;11.45;;
58208;SDS011;44006;52.028;4.696;2022-07-12T07:02:40;18.25;;;15.48;;
58208;SDS011;44006;52.028;4.696;2022-07-12T07:05:05;26.98;;;14.20;;
58208;SDS011;44006;52.028;4.696;2022-07-12T07:07:31;16.48;;;13.60;;
58208;SDS011;44006;52.028;4.696;2022-07-12T07:09:56;14.00;;;12.25;;
58208;SDS011;44006;52.028;4.696;2022-07-12T07:12:22;14.20;;;11.77;;
58208;SDS011;44006;52.028;4.696;2022-07-12T07:14:47;13.27;;;10.85;;
58208;SDS011;44006;52.028;4.696;2022-07-12T07:17:14;16.38;;;13.35;;
58208;SDS011;44006;52.028;4.696;2022-07-12T07:19:41;17.20;;;14.07;;
58208;SDS011;44006;52.028;4.696;2022-07-12T07:22:06;16.88;;;15.05;;
58208;SDS011;44006;52.028;4.696;2022-07-12T07:24:31;19.20;;;15.25;;
58208;SDS011;44006;52.028;4.696;2022-07-12T07:26:57;19.13;;;14.18;;
58208;SDS011;44006;52.028;4.696;2022-07-12T07:29:22;17.40;;;13.63;;
58208;SDS011;44006;52.028;4.696;2022-07-12T07:32:06;14.23;;;12.38;;
58208;SDS011;44006;52.028;4.696;2022-07-12T07:34:31;13.73;;;11.60;;
58208;SDS011;44006;52.028;4.696;2022-07-12T07:36:58;16.75;;;14.10;;
58208;SDS011;44006;52.028;4.696;2022-07-12T07:39:25;13.52;;;12.13;;
58208;SDS011;44006;52.028;4.696;2022-07-12T07:41:51;13.88;;;11.48;;
58208;SDS011;44006;52.028;4.696;2022-07-12T07:44:16;11.57;;;9.82;;
58208;SDS011;44006;52.028;4.696;2022-07-12T07:46:42;14.52;;;11.60;;
58208;SDS011;44006;52.028;4.696;2022-07-12T07:49:07;11.82;;;10.63;;
58208;SDS011;44006;52.028;4.696;2022-07-12T07:51:33;13.38;;;11.98;;
58208;SDS011;44006;52.028;4.696;2022-07-12T07:53:58;12.40;;;11.05;;
58208;SDS011;44006;52.028;4.696;2022-07-12T07:56:24;13.38;;;9.90;;
58208;SDS011;44006;52.028;4.696;2022-07-12T07:58:49;12.60;;;10.65;;
58208;SDS011;44006;52.028;4.696;2022-07-12T08:01:17;10.35;;;9.25;;
58208;SDS011;44006;52.028;4.696;2022-07-12T08:03:42;11.27;;;8.77;;
58208;SDS011;44006;52.028;4.696;2022-07-12T08:06:07;12.48;;;8.32;;
58208;SDS011;44006;52.028;4.696;2022-07-12T08:08:33;10.63;;;7.88;;
58208;SDS011;44006;52.028;4.696;2022-07-12T08:10:58;9.73;;;7.97;;
58208;SDS011;44006;52.028;4.696;2022-07-12T08:13:24;9.68;;;7.35;;
58208;SDS011;44006;52.028;4.696;2022-07-12T08:15:49;8.45;;;6.68;;
58208;SDS011;44006;52.028;4.696;2022-07-12T08:18:16;8.70;;;6.80;;
58208;SDS011;44006;52.028;4.696;2022-07-12T08:20:42;8.10;;;6.10;;
58208;SDS011;44006;52.028;4.696;2022-07-12T08:23:08;8.13;;;5.35;;
58208;SDS011;44006;52.028;4.696;2022-07-12T08:25:34;7.38;;;5.10;;
58208;SDS011;44006;52.028;4.696;2022-07-12T08:28:00;9.32;;;5.72;;
58208;SDS011;44006;52.028;4.696;2022-07-12T08:30:27;8.43;;;5.28;;
58208;SDS011;44006;52.028;4.696;2022-07-12T08:32:53;6.93;;;4.60;;
58208;SDS011;44006;52.028;4.696;2022-07-12T08:35:20;7.80;;;4.50;;
58208;SDS011;44006;52.028;4.696;2022-07-12T08:37:45;6.35;;;4.60;;
58208;SDS011;44006;52.028;4.696;2022-07-12T08:40:12;6.22;;;3.80;;
58208;SDS011;44006;52.028;4.696;2022-07-12T08:42:40;6.95;;;4.63;;
58208;SDS011;44006;52.028;4.696;2022-07-12T08:45:06;6.03;;;4.15;;
58208;SDS011;44006;52.028;4.696;2022-07-12T08:47:33;6.13;;;3.58;;
58208;SDS011;44006;52.028;4.696;2022-07-12T08:50:12;4.65;;;2.70;;
58208;SDS011;44006;52.028;4.696;2022-07-12T08:52:39;6.40;;;4.13;;
58208;SDS011;44006;52.028;4.696;2022-07-12T08:55:49;5.55;;;3.60;;
58208;SDS011;44006;52.028;4.696;2022-07-12T08:57:57;7.22;;;4.05;;
58208;SDS011;44006;52.028;4.696;2022-07-12T09:00:25;5.50;;;4.18;;
58208;SDS011;44006;52.028;4.696;2022-07-12T09:02:53;6.30;;;3.90;;
58208;SDS011;44006;52.028;4.696;2022-07-12T09:05:28;5.07;;;3.35;;
58208;SDS011;44006;52.028;4.696;2022-07-12T09:08:05;6.72;;;4.00;;
58208;SDS011;44006;52.028;4.696;2022-07-12T09:10:51;8.35;;;4.68;;
58208;SDS011;44006;52.028;4.696;2022-07-12T09:13:18;8.35;;;3.50;;
58208;SDS011;44006;52.028;4.696;2022-07-12T09:15:44;5.88;;;3.53;;
58208;SDS011;44006;52.028;4.696;2022-07-12T09:18:11;6.35;;;3.35;;
58208;SDS011;44006;52.028;4.696;2022-07-12T09:20:51;5.80;;;4.45;;
58208;SDS011;44006;52.028;4.696;2022-07-12T09:23:18;6.88;;;4.78;;
58208;SDS011;44006;52.028;4.696;2022-07-12T09:25:45;4.60;;;3.80;;
58208;SDS011;44006;52.028;4.696;2022-07-12T09:28:12;6.15;;;4.05;;
58208;SDS011;44006;52.028;4.696;2022-07-12T09:30:48;7.82;;;3.83;;
58208;SDS011;44006;52.028;4.696;2022-07-12T09:33:17;6.05;;;3.75;;
58208;SDS011;44006;52.028;4.696;2022-07-12T09:36:02;8.00;;;4.32;;
58208;SDS011;44006;52.028;4.696;2022-07-12T09:41:01;6.18;;;3.47;;
58208;SDS011;44006;52.028;4.696;2022-07-12T09:43:27;4.88;;;3.05;;
58208;SDS011;44006;52.028;4.696;2022-07-12T09:45:53;6.20;;;4.43;;
58208;SDS011;44006;52.028;4.696;2022-07-12T09:48:22;7.05;;;4.28;;
58208;SDS011;44006;52.028;4.696;2022-07-12T09:50:51;8.07;;;4.82;;
58208;SDS011;44006;52.028;4.696;2022-07-12T09:55:52;9.02;;;5.68;;
58208;SDS011;44006;52.028;4.696;2022-07-12T09:58:21;7.68;;;5.13;;
58208;SDS011;44006;52.028;4.696;2022-07-12T10:00:52;8.40;;;4.90;;
58208;SDS011;44006;52.028;4.696;2022-07-12T10:03:20;7.90;;;4.93;;
58208;SDS011;44006;52.028;4.696;2022-07-12T10:05:47;6.80;;;4.50;;
58208;SDS011;44006;52.028;4.696;2022-07-12T10:08:16;6.57;;;3.90;;
58208;SDS011;44006;52.028;4.696;2022-07-12T10:10:42;5.60;;;4.38;;
58208;SDS011;44006;52.028;4.696;2022-07-12T10:13:08;5.57;;;4.10;;
58208;SDS011;44006;52.028;4.696;2022-07-12T10:15:35;5.95;;;3.33;;
58208;SDS011;44006;52.028;4.696;2022-07-12T10:18:02;5.68;;;3.75;;
58208;SDS011;44006;52.028;4.696;2022-07-12T10:20:30;6.22;;;4.05;;
58208;SDS011;44006;52.028;4.696;2022-07-12T10:23:41;6.43;;;4.10;;
58208;SDS011;44006;52.028;4.696;2022-07-12T10:25:45;4.90;;;3.90;;
58208;SDS011;44006;52.028;4.696;2022-07-12T10:28:13;5.72;;;4.07;;
58208;SDS011;44006;52.028;4.696;2022-07-12T10:30:43;8.93;;;4.63;;
58208;SDS011;44006;52.028;4.696;2022-07-12T10:33:17;4.85;;;4.15;;
58208;SDS011;44006;52.028;4.696;2022-07-12T10:35:59;10.43;;;4.63;;
58208;SDS011;44006;52.028;4.696;2022-07-12T10:38:25;7.72;;;4.57;;
58208;SDS011;44006;52.028;4.696;2022-07-12T10:40:51;7.47;;;4.60;;
58208;SDS011;44006;52.028;4.696;2022-07-12T10:43:22;8.40;;;3.90;;
58208;SDS011;44006;52.028;4.696;2022-07-12T10:46:16;9.55;;;5.43;;
58208;SDS011;44006;52.028;4.696;2022-07-12T10:48:46;6.20;;;4.32;;
58208;SDS011;44006;52.028;4.696;2022-07-12T10:51:12;4.45;;;3.45;;
58208;SDS011;44006;52.028;4.696;2022-07-12T10:53:44;5.68;;;3.30;;
58208;SDS011;44006;52.028;4.696;2022-07-12T10:56:23;4.47;;;3.90;;
58208;SDS011;44006;52.028;4.696;2022-07-12T10:58:56;7.40;;;4.22;;
58208;SDS011;44006;52.028;4.696;2022-07-12T11:01:24;6.13;;;4.35;;
58208;SDS011;44006;52.028;4.696;2022-07-12T11:04:04;6.05;;;3.58;;
58208;SDS011;44006;52.028;4.696;2022-07-12T11:06:34;8.07;;;5.30;;
58208;SDS011;44006;52.028;4.696;2022-07-12T11:09:03;7.47;;;4.00;;
58208;SDS011;44006;52.028;4.696;2022-07-12T11:11:31;4.72;;;3.83;;
58208;SDS011;44006;52.028;4.696;2022-07-12T11:13:59;5.75;;;4.72;;
58208;SDS011;44006;52.028;4.696;2022-07-12T11:16:27;8.30;;;4.50;;
58208;SDS011;44006;52.028;4.696;2022-07-12T11:18:54;7.35;;;4.60;;
58208;SDS011;44006;52.028;4.696;2022-07-12T11:21:20;6.65;;;4.57;;
58208;SDS011;44006;52.028;4.696;2022-07-12T11:23:47;5.95;;;4.38;;
58208;SDS011;44006;52.028;4.696;2022-07-12T11:26:13;5.22;;;4.10;;
58208;SDS011;44006;52.028;4.696;2022-07-12T11:28:40;6.18;;;3.25;;
58208;SDS011;44006;52.028;4.696;2022-07-12T11:31:09;4.18;;;3.17;;
58208;SDS011;44006;52.028;4.696;2022-07-12T11:33:36;4.90;;;3.25;;
58208;SDS011;44006;52.028;4.696;2022-07-12T11:36:13;5.60;;;2.88;;
58208;SDS011;44006;52.028;4.696;2022-07-12T11:38:40;4.97;;;3.20;;
58208;SDS011;44006;52.028;4.696;2022-07-12T11:41:08;8.05;;;4.40;;
58208;SDS011;44006;52.028;4.696;2022-07-12T11:43:36;10.23;;;4.30;;
58208;SDS011;44006;52.028;4.696;2022-07-12T11:46:03;6.18;;;4.03;;
58208;SDS011;44006;52.028;4.696;2022-07-12T11:48:30;5.38;;;3.60;;
58208;SDS011;44006;52.028;4.696;2022-07-12T11:51:03;4.68;;;3.35;;
58208;SDS011;44006;52.028;4.696;2022-07-12T11:53:30;6.00;;;3.75;;
58208;SDS011;44006;52.028;4.696;2022-07-12T11:55:58;5.10;;;3.03;;
58208;SDS011;44006;52.028;4.696;2022-07-12T11:58:24;5.72;;;3.38;;
58208;SDS011;44006;52.028;4.696;2022-07-12T12:00:51;6.18;;;3.63;;
58208;SDS011;44006;52.028;4.696;2022-07-12T12:03:19;5.30;;;4.00;;
58208;SDS011;44006;52.028;4.696;2022-07-12T12:05:47;7.03;;;3.35;;
58208;SDS011;44006;52.028;4.696;2022-07-12T12:08:14;4.30;;;2.92;;
58208;SDS011;44006;52.028;4.696;2022-07-12T12:10:41;3.92;;;2.92;;
58208;SDS011;44006;52.028;4.696;2022-07-12T12:13:15;3.92;;;2.72;;
58208;SDS011;44006;52.028;4.696;2022-07-12T12:15:48;4.32;;;3.20;;
58208;SDS011;44006;52.028;4.696;2022-07-12T12:18:31;5.47;;;2.80;;
58208;SDS011;44006;52.028;4.696;2022-07-12T12:21:02;7.32;;;3.30;;
58208;SDS011;44006;52.028;4.696;2022-07-12T12:23:30;4.25;;;3.10;;
58208;SDS011;44006;52.028;4.696;2022-07-12T12:28:59;7.05;;;3.60;;
58208;SDS011;44006;52.028;4.696;2022-07-12T12:31:27;4.75;;;3.00;;
58208;SDS011;44006;52.028;4.696;2022-07-12T12:33:53;4.10;;;2.90;;
58208;SDS011;44006;52.028;4.696;2022-07-12T12:36:35;3.35;;;2.47;;
58208;SDS011;44006;52.028;4.696;2022-07-12T12:39:02;4.50;;;2.53;;
58208;SDS011;44006;52.028;4.696;2022-07-12T12:41:29;4.25;;;2.85;;
58208;SDS011;44006;52.028;4.696;2022-07-12T12:44:03;4.75;;;2.90;;
58208;SDS011;44006;52.028;4.696;2022-07-12T12:49:48;6.40;;;4.50;;
58208;SDS011;44006;52.028;4.696;2022-07-12T12:52:16;7.50;;;4.07;;
58208;SDS011;44006;52.028;4.696;2022-07-12T12:54:43;7.65;;;3.92;;
58208;SDS011;44006;52.028;4.696;2022-07-12T12:57:10;6.68;;;3.00;;
58208;SDS011;44006;52.028;4.696;2022-07-12T12:59:36;5.22;;;3.75;;
58208;SDS011;44006;52.028;4.696;2022-07-12T13:02:03;4.75;;;3.38;;
58208;SDS011;44006;52.028;4.696;2022-07-12T13:04:30;4.63;;;3.35;;
58208;SDS011;44006;52.028;4.696;2022-07-12T13:06:57;4.25;;;3.22;;
58208;SDS011;44006;52.028;4.696;2022-07-12T13:09:23;4.28;;;3.00;;
58208;SDS011;44006;52.028;4.696;2022-07-12T13:11:50;5.30;;;3.08;;
58208;SDS011;44006;52.028;4.696;2022-07-12T13:14:15;3.70;;;2.50;;
58208;SDS011;44006;52.028;4.696;2022-07-12T13:16:41;3.83;;;2.90;;
58208;SDS011;44006;52.028;4.696;2022-07-12T13:19:07;5.25;;;2.47;;
58208;SDS011;44006;52.028;4.696;2022-07-12T13:21:32;4.82;;;2.55;;
58208;SDS011;44006;52.028;4.696;2022-07-12T13:23:58;3.47;;;2.60;;
58208;SDS011;44006;52.028;4.696;2022-07-12T13:26:23;5.45;;;3.30;;
58208;SDS011;44006;52.028;4.696;2022-07-12T13:28:49;5.10;;;2.92;;
58208;SDS011;44006;52.028;4.696;2022-07-12T13:31:15;4.22;;;3.13;;
58208;SDS011;44006;52.028;4.696;2022-07-12T13:33:41;6.28;;;3.15;;
58208;SDS011;44006;52.028;4.696;2022-07-12T13:36:07;3.60;;;2.50;;
58208;SDS011;44006;52.028;4.696;2022-07-12T13:38:33;4.85;;;2.60;;
58208;SDS011;44006;52.028;4.696;2022-07-12T13:40:58;4.72;;;3.53;;
58208;SDS011;44006;52.028;4.696;2022-07-12T13:43:24;5.10;;;3.45;;
58208;SDS011;44006;52.028;4.696;2022-07-12T13:45:50;4.68;;;3.60;;
58208;SDS011;44006;52.028;4.696;2022-07-12T13:48:16;5.07;;;3.45;;
58208;SDS011;44006;52.028;4.696;2022-07-12T13:50:43;4.13;;;3.38;;
58208;SDS011;44006;52.028;4.696;2022-07-12T13:53:09;4.50;;;2.63;;
58208;SDS011;44006;52.028;4.696;2022-07-12T13:55:35;3.80;;;2.03;;
58208;SDS011;44006;52.028;4.696;2022-07-12T13:58:01;2.85;;;2.20;;
58208;SDS011;44006;52.028;4.696;2022-07-12T14:00:27;2.58;;;2.15;;
58208;SDS011;44006;52.028;4.696;2022-07-12T14:02:53;2.92;;;2.03;;
58208;SDS011;44006;52.028;4.696;2022-07-12T14:05:18;7.07;;;2.28;;
58208;SDS011;44006;52.028;4.696;2022-07-12T14:07:45;4.07;;;2.30;;
58208;SDS011;44006;52.028;4.696;2022-07-12T14:10:11;3.60;;;2.00;;
58208;SDS011;44006;52.028;4.696;2022-07-12T14:12:37;4.28;;;2.00;;
58208;SDS011;44006;52.028;4.696;2022-07-12T14:15:04;4.78;;;1.98;;
58208;SDS011;44006;52.028;4.696;2022-07-12T14:17:36;4.97;;;2.05;;
58208;SDS011;44006;52.028;4.696;2022-07-12T14:22:33;4.07;;;2.10;;
58208;SDS011;44006;52.028;4.696;2022-07-12T14:24:58;3.03;;;2.03;;
58208;SDS011;44006;52.028;4.696;2022-07-12T14:27:24;2.42;;;2.10;;
58208;SDS011;44006;52.028;4.696;2022-07-12T14:29:50;4.47;;;2.13;;
58208;SDS011;44006;52.028;4.696;2022-07-12T14:32:15;3.08;;;1.95;;
58208;SDS011;44006;52.028;4.696;2022-07-12T14:34:41;6.30;;;2.10;;
58208;SDS011;44006;52.028;4.696;2022-07-12T14:37:06;3.70;;;2.10;;
58208;SDS011;44006;52.028;4.696;2022-07-12T14:39:32;2.45;;;1.98;;
58208;SDS011;44006;52.028;4.696;2022-07-12T14:41:58;4.78;;;2.38;;
58208;SDS011;44006;52.028;4.696;2022-07-12T14:44:24;4.88;;;2.00;;
58208;SDS011;44006;52.028;4.696;2022-07-12T14:46:51;3.35;;;1.67;;
58208;SDS011;44006;52.028;4.696;2022-07-12T14:49:18;4.20;;;2.35;;
58208;SDS011;44006;52.028;4.696;2022-07-12T14:51:44;3.00;;;1.67;;
58208;SDS011;44006;52.028;4.696;2022-07-12T14:54:10;2.28;;;1.70;;
58208;SDS011;44006;52.028;4.696;2022-07-12T14:56:35;2.70;;;1.75;;
58208;SDS011;44006;52.028;4.696;2022-07-12T14:59:01;2.40;;;1.80;;